sensor_id;sensor_type;location;lat;lon;timestamp;temperature;humidity
16417;DHT22;8317;52.186;5.688;2022-11-18T00:01:45;8.60;99.90
16417;DHT22;8317;52.186;5.688;2022-11-18T00:04:12;8.60;99.90
16417;DHT22;8317;52.186;5.688;2022-11-18T00:06:39;8.60;99.90
16417;DHT22;8317;52.186;5.688;2022-11-18T00:09:06;8.60;99.90
16417;DHT22;8317;52.186;5.688;2022-11-18T00:11:32;8.50;99.90
16417;DHT22;8317;52.186;5.688;2022-11-18T00:14:20;8.50;99.90
16417;DHT22;8317;52.186;5.688;2022-11-18T00:16:50;8.50;99.90
16417;DHT22;8317;52.186;5.688;2022-11-18T00:19:18;8.50;99.90
16417;DHT22;8317;52.186;5.688;2022-11-18T00:21:45;8.50;99.90
16417;DHT22;8317;52.186;5.688;2022-11-18T00:24:12;8.50;99.90
16417;DHT22;8317;52.186;5.688;2022-11-18T00:26:39;8.50;99.90
16417;DHT22;8317;52.186;5.688;2022-11-18T00:29:08;8.50;99.90
16417;DHT22;8317;52.186;5.688;2022-11-18T00:31:36;8.50;99.90
16417;DHT22;8317;52.186;5.688;2022-11-18T00:34:04;8.40;99.90
16417;DHT22;8317;52.186;5.688;2022-11-18T00:36:31;8.50;99.90
16417;DHT22;8317;52.186;5.688;2022-11-18T00:38:58;8.50;99.90
16417;DHT22;8317;52.186;5.688;2022-11-18T00:41:25;8.50;99.90
16417;DHT22;8317;52.186;5.688;2022-11-18T00:44:12;8.50;99.90
16417;DHT22;8317;52.186;5.688;2022-11-18T00:46:40;8.40;99.90
16417;DHT22;8317;52.186;5.688;2022-11-18T00:49:07;8.50;99.90
16417;DHT22;8317;52.186;5.688;2022-11-18T00:51:34;8.50;99.90
16417;DHT22;8317;52.186;5.688;2022-11-18T00:54:02;8.50;99.90
16417;DHT22;8317;52.186;5.688;2022-11-18T00:56:29;8.60;99.90
16417;DHT22;8317;52.186;5.688;2022-11-18T00:58:56;8.50;99.90
16417;DHT22;8317;52.186;5.688;2022-11-18T01:01:23;8.50;99.90
16417;DHT22;8317;52.186;5.688;2022-11-18T01:03:52;8.50;99.90
16417;DHT22;8317;52.186;5.688;2022-11-18T01:06:19;8.50;99.90
16417;DHT22;8317;52.186;5.688;2022-11-18T01:08:46;8.50;99.90
16417;DHT22;8317;52.186;5.688;2022-11-18T01:11:13;8.50;99.90
16417;DHT22;8317;52.186;5.688;2022-11-18T01:13:57;8.40;99.90
16417;DHT22;8317;52.186;5.688;2022-11-18T01:16:25;8.50;99.90
16417;DHT22;8317;52.186;5.688;2022-11-18T01:18:53;8.40;99.90
16417;DHT22;8317;52.186;5.688;2022-11-18T01:21:20;8.40;99.90
16417;DHT22;8317;52.186;5.688;2022-11-18T01:23:47;8.40;99.90
16417;DHT22;8317;52.186;5.688;2022-11-18T01:26:16;8.40;99.90
16417;DHT22;8317;52.186;5.688;2022-11-18T01:28:43;8.50;99.90
16417;DHT22;8317;52.186;5.688;2022-11-18T01:31:12;8.50;99.90
16417;DHT22;8317;52.186;5.688;2022-11-18T01:33:40;8.50;99.90
16417;DHT22;8317;52.186;5.688;2022-11-18T01:36:16;8.50;99.90
16417;DHT22;8317;52.186;5.688;2022-11-18T01:38:43;8.40;99.90
16417;DHT22;8317;52.186;5.688;2022-11-18T01:41:11;8.40;99.90
16417;DHT22;8317;52.186;5.688;2022-11-18T01:43:50;8.40;99.90
16417;DHT22;8317;52.186;5.688;2022-11-18T01:46:18;8.30;99.90
16417;DHT22;8317;52.186;5.688;2022-11-18T01:48:47;8.30;99.90
16417;DHT22;8317;52.186;5.688;2022-11-18T01:51:20;8.30;99.90
16417;DHT22;8317;52.186;5.688;2022-11-18T01:53:51;8.40;99.90
16417;DHT22;8317;52.186;5.688;2022-11-18T01:56:23;8.40;99.90
16417;DHT22;8317;52.186;5.688;2022-11-18T01:58:54;8.40;99.90
16417;DHT22;8317;52.186;5.688;2022-11-18T02:01:22;8.30;99.90
16417;DHT22;8317;52.186;5.688;2022-11-18T02:03:49;8.30;99.90
16417;DHT22;8317;52.186;5.688;2022-11-18T02:06:18;8.30;99.90
16417;DHT22;8317;52.186;5.688;2022-11-18T02:08:46;8.40;99.90
16417;DHT22;8317;52.186;5.688;2022-11-18T02:11:14;8.50;99.90
16417;DHT22;8317;52.186;5.688;2022-11-18T02:13:56;8.50;99.90
16417;DHT22;8317;52.186;5.688;2022-11-18T02:16:31;8.40;99.90
16417;DHT22;8317;52.186;5.688;2022-11-18T02:19:13;8.60;99.90
16417;DHT22;8317;52.186;5.688;2022-11-18T02:21:52;8.50;99.90
16417;DHT22;8317;52.186;5.688;2022-11-18T02:24:35;8.60;99.90
16417;DHT22;8317;52.186;5.688;2022-11-18T02:27:31;8.50;99.90
16417;DHT22;8317;52.186;5.688;2022-11-18T02:30:06;8.50;99.90
16417;DHT22;8317;52.186;5.688;2022-11-18T02:32:39;8.50;99.90
16417;DHT22;8317;52.186;5.688;2022-11-18T02:35:14;8.50;99.90
16417;DHT22;8317;52.186;5.688;2022-11-18T02:37:46;8.50;99.90
16417;DHT22;8317;52.186;5.688;2022-11-18T02:40:17;8.50;99.90
16417;DHT22;8317;52.186;5.688;2022-11-18T02:42:50;8.60;99.90
16417;DHT22;8317;52.186;5.688;2022-11-18T02:45:21;8.50;99.90
16417;DHT22;8317;52.186;5.688;2022-11-18T02:47:49;8.50;99.90
16417;DHT22;8317;52.186;5.688;2022-11-18T02:50:20;8.40;99.90
16417;DHT22;8317;52.186;5.688;2022-11-18T02:52:53;8.40;99.90
16417;DHT22;8317;52.186;5.688;2022-11-18T02:55:21;8.40;99.90
16417;DHT22;8317;52.186;5.688;2022-11-18T02:57:49;8.50;99.90
16417;DHT22;8317;52.186;5.688;2022-11-18T03:00:16;8.40;99.90
16417;DHT22;8317;52.186;5.688;2022-11-18T03:02:46;8.30;99.90
16417;DHT22;8317;52.186;5.688;2022-11-18T03:05:18;8.40;99.90
16417;DHT22;8317;52.186;5.688;2022-11-18T03:07:50;8.40;99.90
16417;DHT22;8317;52.186;5.688;2022-11-18T03:10:21;8.40;99.90
16417;DHT22;8317;52.186;5.688;2022-11-18T03:12:54;8.40;99.90
16417;DHT22;8317;52.186;5.688;2022-11-18T03:15:31;8.40;99.90
16417;DHT22;8317;52.186;5.688;2022-11-18T03:18:06;8.30;99.90
16417;DHT22;8317;52.186;5.688;2022-11-18T03:20:38;8.40;99.90
16417;DHT22;8317;52.186;5.688;2022-11-18T03:23:09;8.30;99.90
16417;DHT22;8317;52.186;5.688;2022-11-18T03:25:43;8.30;99.90
16417;DHT22;8317;52.186;5.688;2022-11-18T03:28:13;8.40;99.90
16417;DHT22;8317;52.186;5.688;2022-11-18T03:30:45;8.30;99.90
16417;DHT22;8317;52.186;5.688;2022-11-18T03:33:23;8.40;99.90
16417;DHT22;8317;52.186;5.688;2022-11-18T03:35:55;8.40;99.90
16417;DHT22;8317;52.186;5.688;2022-11-18T03:38:28;8.30;99.90
16417;DHT22;8317;52.186;5.688;2022-11-18T03:40:58;8.40;99.90
16417;DHT22;8317;52.186;5.688;2022-11-18T03:43:30;8.40;99.90
16417;DHT22;8317;52.186;5.688;2022-11-18T03:46:03;8.40;99.90
16417;DHT22;8317;52.186;5.688;2022-11-18T03:48:36;8.40;99.90
16417;DHT22;8317;52.186;5.688;2022-11-18T03:51:07;8.40;99.90
16417;DHT22;8317;52.186;5.688;2022-11-18T03:53:38;8.40;99.90
16417;DHT22;8317;52.186;5.688;2022-11-18T03:56:09;8.40;99.90
16417;DHT22;8317;52.186;5.688;2022-11-18T03:58:42;8.40;99.90
16417;DHT22;8317;52.186;5.688;2022-11-18T04:01:15;8.40;99.90
16417;DHT22;8317;52.186;5.688;2022-11-18T04:03:44;8.40;99.90
16417;DHT22;8317;52.186;5.688;2022-11-18T04:06:15;8.40;99.90
16417;DHT22;8317;52.186;5.688;2022-11-18T04:08:52;8.40;99.90
16417;DHT22;8317;52.186;5.688;2022-11-18T04:11:24;8.40;99.90
16417;DHT22;8317;52.186;5.688;2022-11-18T04:14:10;8.50;99.90
16417;DHT22;8317;52.186;5.688;2022-11-18T04:16:39;8.40;99.90
16417;DHT22;8317;52.186;5.688;2022-11-18T04:19:08;8.40;99.90
16417;DHT22;8317;52.186;5.688;2022-11-18T04:21:35;8.40;99.90
16417;DHT22;8317;52.186;5.688;2022-11-18T04:24:02;8.40;99.90
16417;DHT22;8317;52.186;5.688;2022-11-18T04:26:29;8.50;99.90
16417;DHT22;8317;52.186;5.688;2022-11-18T04:28:57;8.40;99.90
16417;DHT22;8317;52.186;5.688;2022-11-18T04:31:24;8.40;99.90
16417;DHT22;8317;52.186;5.688;2022-11-18T04:33:51;8.50;99.90
16417;DHT22;8317;52.186;5.688;2022-11-18T04:36:19;8.40;99.90
16417;DHT22;8317;52.186;5.688;2022-11-18T04:38:46;8.40;99.90
16417;DHT22;8317;52.186;5.688;2022-11-18T04:41:12;8.50;99.90
16417;DHT22;8317;52.186;5.688;2022-11-18T04:43:40;8.40;99.90
16417;DHT22;8317;52.186;5.688;2022-11-18T04:46:07;8.40;99.90
16417;DHT22;8317;52.186;5.688;2022-11-18T04:48:34;8.40;99.90
16417;DHT22;8317;52.186;5.688;2022-11-18T04:51:02;8.40;99.90
16417;DHT22;8317;52.186;5.688;2022-11-18T04:53:31;8.40;99.90
16417;DHT22;8317;52.186;5.688;2022-11-18T04:56:03;8.40;99.90
16417;DHT22;8317;52.186;5.688;2022-11-18T04:58:31;8.40;99.90
16417;DHT22;8317;52.186;5.688;2022-11-18T05:00:59;8.40;99.90
16417;DHT22;8317;52.186;5.688;2022-11-18T05:03:25;8.40;99.90
16417;DHT22;8317;52.186;5.688;2022-11-18T05:05:52;8.30;99.90
16417;DHT22;8317;52.186;5.688;2022-11-18T05:08:19;8.30;99.90
16417;DHT22;8317;52.186;5.688;2022-11-18T05:10:47;8.30;99.90
16417;DHT22;8317;52.186;5.688;2022-11-18T05:13:14;8.30;99.90
16417;DHT22;8317;52.186;5.688;2022-11-18T05:15:40;8.30;99.90
16417;DHT22;8317;52.186;5.688;2022-11-18T05:18:09;8.30;99.90
16417;DHT22;8317;52.186;5.688;2022-11-18T05:20:36;8.30;99.90
16417;DHT22;8317;52.186;5.688;2022-11-18T05:23:03;8.20;99.90
16417;DHT22;8317;52.186;5.688;2022-11-18T05:25:30;8.20;99.90
16417;DHT22;8317;52.186;5.688;2022-11-18T05:27:58;8.20;99.90
16417;DHT22;8317;52.186;5.688;2022-11-18T05:30:25;8.20;99.90
16417;DHT22;8317;52.186;5.688;2022-11-18T05:32:52;8.10;99.90
16417;DHT22;8317;52.186;5.688;2022-11-18T05:35:19;8.20;99.90
16417;DHT22;8317;52.186;5.688;2022-11-18T05:37:46;8.20;99.90
16417;DHT22;8317;52.186;5.688;2022-11-18T05:40:13;8.10;99.90
16417;DHT22;8317;52.186;5.688;2022-11-18T05:42:40;8.20;99.90
16417;DHT22;8317;52.186;5.688;2022-11-18T05:45:25;8.10;99.90
16417;DHT22;8317;52.186;5.688;2022-11-18T05:47:52;8.10;99.90
16417;DHT22;8317;52.186;5.688;2022-11-18T05:50:29;8.10;99.90
16417;DHT22;8317;52.186;5.688;2022-11-18T05:52:56;8.10;99.90
16417;DHT22;8317;52.186;5.688;2022-11-18T05:55:26;8.10;99.90
16417;DHT22;8317;52.186;5.688;2022-11-18T05:57:53;8.10;99.90
16417;DHT22;8317;52.186;5.688;2022-11-18T06:00:20;8.20;99.90
16417;DHT22;8317;52.186;5.688;2022-11-18T06:02:50;8.20;99.90
16417;DHT22;8317;52.186;5.688;2022-11-18T06:05:18;8.10;99.90
16417;DHT22;8317;52.186;5.688;2022-11-18T06:07:45;8.10;99.90
16417;DHT22;8317;52.186;5.688;2022-11-18T06:10:16;8.10;99.90
16417;DHT22;8317;52.186;5.688;2022-11-18T06:12:46;8.10;99.90
16417;DHT22;8317;52.186;5.688;2022-11-18T06:15:18;8.10;99.90
16417;DHT22;8317;52.186;5.688;2022-11-18T06:17:50;8.10;99.90
16417;DHT22;8317;52.186;5.688;2022-11-18T06:20:18;8.10;99.90
16417;DHT22;8317;52.186;5.688;2022-11-18T06:22:45;8.10;99.90
16417;DHT22;8317;52.186;5.688;2022-11-18T06:25:13;8.00;99.90
16417;DHT22;8317;52.186;5.688;2022-11-18T06:27:41;8.10;99.90
16417;DHT22;8317;52.186;5.688;2022-11-18T06:30:09;8.10;99.90
16417;DHT22;8317;52.186;5.688;2022-11-18T06:32:36;8.10;99.90
16417;DHT22;8317;52.186;5.688;2022-11-18T06:35:05;8.00;99.90
16417;DHT22;8317;52.186;5.688;2022-11-18T06:37:32;8.10;99.90
16417;DHT22;8317;52.186;5.688;2022-11-18T06:39:59;8.00;99.90
16417;DHT22;8317;52.186;5.688;2022-11-18T06:42:26;7.90;99.90
16417;DHT22;8317;52.186;5.688;2022-11-18T06:45:11;8.00;99.90
16417;DHT22;8317;52.186;5.688;2022-11-18T06:47:38;8.00;99.90
16417;DHT22;8317;52.186;5.688;2022-11-18T06:50:06;8.00;99.90
16417;DHT22;8317;52.186;5.688;2022-11-18T06:52:33;8.00;99.90
16417;DHT22;8317;52.186;5.688;2022-11-18T06:55:00;8.00;99.90
16417;DHT22;8317;52.186;5.688;2022-11-18T06:57:28;7.90;99.90
16417;DHT22;8317;52.186;5.688;2022-11-18T06:59:55;7.90;99.90
16417;DHT22;8317;52.186;5.688;2022-11-18T07:02:21;8.00;99.90
16417;DHT22;8317;52.186;5.688;2022-11-18T07:04:48;8.00;99.90
16417;DHT22;8317;52.186;5.688;2022-11-18T07:07:16;8.00;99.90
16417;DHT22;8317;52.186;5.688;2022-11-18T07:09:43;8.00;99.90
16417;DHT22;8317;52.186;5.688;2022-11-18T07:12:10;7.90;99.90
16417;DHT22;8317;52.186;5.688;2022-11-18T07:14:37;7.90;99.90
16417;DHT22;8317;52.186;5.688;2022-11-18T07:17:04;7.90;99.90
16417;DHT22;8317;52.186;5.688;2022-11-18T07:19:31;7.90;99.90
16417;DHT22;8317;52.186;5.688;2022-11-18T07:21:58;8.00;99.90
16417;DHT22;8317;52.186;5.688;2022-11-18T07:24:27;7.90;99.90
16417;DHT22;8317;52.186;5.688;2022-11-18T07:26:53;7.90;99.90
16417;DHT22;8317;52.186;5.688;2022-11-18T07:29:20;8.00;99.90
16417;DHT22;8317;52.186;5.688;2022-11-18T07:31:47;8.00;99.90
16417;DHT22;8317;52.186;5.688;2022-11-18T07:34:14;8.00;99.90
16417;DHT22;8317;52.186;5.688;2022-11-18T07:36:41;8.00;99.90
16417;DHT22;8317;52.186;5.688;2022-11-18T07:39:08;8.00;99.90
16417;DHT22;8317;52.186;5.688;2022-11-18T07:41:39;8.00;99.90
16417;DHT22;8317;52.186;5.688;2022-11-18T07:44:06;8.00;99.90
16417;DHT22;8317;52.186;5.688;2022-11-18T07:46:34;8.00;99.90
16417;DHT22;8317;52.186;5.688;2022-11-18T07:49:03;8.10;99.90
16417;DHT22;8317;52.186;5.688;2022-11-18T07:51:33;8.10;99.90
16417;DHT22;8317;52.186;5.688;2022-11-18T07:54:00;8.20;99.90
16417;DHT22;8317;52.186;5.688;2022-11-18T07:56:30;8.20;99.90
16417;DHT22;8317;52.186;5.688;2022-11-18T07:58:59;8.10;99.90
16417;DHT22;8317;52.186;5.688;2022-11-18T08:01:26;8.10;99.90
16417;DHT22;8317;52.186;5.688;2022-11-18T08:03:55;8.20;99.90
16417;DHT22;8317;52.186;5.688;2022-11-18T08:06:22;8.30;99.90
16417;DHT22;8317;52.186;5.688;2022-11-18T08:08:49;8.30;99.90
16417;DHT22;8317;52.186;5.688;2022-11-18T08:11:18;8.30;99.90
16417;DHT22;8317;52.186;5.688;2022-11-18T08:13:45;8.40;99.90
16417;DHT22;8317;52.186;5.688;2022-11-18T08:16:15;8.50;99.90
16417;DHT22;8317;52.186;5.688;2022-11-18T08:18:43;8.70;99.90
16417;DHT22;8317;52.186;5.688;2022-11-18T08:21:10;8.80;99.90
16417;DHT22;8317;52.186;5.688;2022-11-18T08:23:37;8.90;99.90
16417;DHT22;8317;52.186;5.688;2022-11-18T08:26:07;9.10;99.90
16417;DHT22;8317;52.186;5.688;2022-11-18T08:28:34;9.20;99.90
16417;DHT22;8317;52.186;5.688;2022-11-18T08:31:08;9.50;99.90
16417;DHT22;8317;52.186;5.688;2022-11-18T08:33:37;9.70;99.90
16417;DHT22;8317;52.186;5.688;2022-11-18T08:36:06;9.80;99.90
16417;DHT22;8317;52.186;5.688;2022-11-18T08:38:33;10.00;99.90
16417;DHT22;8317;52.186;5.688;2022-11-18T08:41:00;10.20;99.90
16417;DHT22;8317;52.186;5.688;2022-11-18T08:43:27;10.00;99.90
16417;DHT22;8317;52.186;5.688;2022-11-18T08:45:54;10.00;99.90
16417;DHT22;8317;52.186;5.688;2022-11-18T08:48:21;10.40;99.90
16417;DHT22;8317;52.186;5.688;2022-11-18T08:50:50;10.50;99.90
16417;DHT22;8317;52.186;5.688;2022-11-18T08:53:17;10.30;99.90
16417;DHT22;8317;52.186;5.688;2022-11-18T08:55:43;10.70;99.90
16417;DHT22;8317;52.186;5.688;2022-11-18T08:58:10;10.60;99.90
16417;DHT22;8317;52.186;5.688;2022-11-18T09:00:37;11.00;99.90
16417;DHT22;8317;52.186;5.688;2022-11-18T09:03:04;11.10;99.90
16417;DHT22;8317;52.186;5.688;2022-11-18T09:05:31;11.50;99.90
16417;DHT22;8317;52.186;5.688;2022-11-18T09:07:59;11.60;99.90
16417;DHT22;8317;52.186;5.688;2022-11-18T09:10:26;11.40;99.90
16417;DHT22;8317;52.186;5.688;2022-11-18T09:12:53;11.50;99.90
16417;DHT22;8317;52.186;5.688;2022-11-18T09:15:20;11.70;99.90
16417;DHT22;8317;52.186;5.688;2022-11-18T09:17:48;11.50;99.90
16417;DHT22;8317;52.186;5.688;2022-11-18T09:20:16;11.50;99.90
16417;DHT22;8317;52.186;5.688;2022-11-18T09:22:43;12.00;99.90
16417;DHT22;8317;52.186;5.688;2022-11-18T09:25:11;11.50;99.90
16417;DHT22;8317;52.186;5.688;2022-11-18T09:27:38;11.40;99.90
16417;DHT22;8317;52.186;5.688;2022-11-18T09:30:06;12.00;99.90
16417;DHT22;8317;52.186;5.688;2022-11-18T09:32:33;11.80;99.90
16417;DHT22;8317;52.186;5.688;2022-11-18T09:35:00;11.60;99.90
16417;DHT22;8317;52.186;5.688;2022-11-18T09:37:27;11.50;99.90
16417;DHT22;8317;52.186;5.688;2022-11-18T09:39:53;11.90;99.90
16417;DHT22;8317;52.186;5.688;2022-11-18T09:42:40;11.80;99.90
16417;DHT22;8317;52.186;5.688;2022-11-18T09:45:17;11.70;99.90
16417;DHT22;8317;52.186;5.688;2022-11-18T09:47:45;12.00;99.90
16417;DHT22;8317;52.186;5.688;2022-11-18T09:50:14;12.50;99.90
16417;DHT22;8317;52.186;5.688;2022-11-18T09:52:45;12.90;99.90
16417;DHT22;8317;52.186;5.688;2022-11-18T09:55:16;12.70;99.90
16417;DHT22;8317;52.186;5.688;2022-11-18T09:57:48;13.10;99.90
16417;DHT22;8317;52.186;5.688;2022-11-18T10:00:17;12.80;99.90
16417;DHT22;8317;52.186;5.688;2022-11-18T10:02:51;12.40;99.90
16417;DHT22;8317;52.186;5.688;2022-11-18T10:05:23;12.30;99.90
16417;DHT22;8317;52.186;5.688;2022-11-18T10:08:12;12.20;99.90
16417;DHT22;8317;52.186;5.688;2022-11-18T10:10:46;12.20;99.90
16417;DHT22;8317;52.186;5.688;2022-11-18T10:13:26;12.10;99.90
16417;DHT22;8317;52.186;5.688;2022-11-18T10:16:02;11.70;99.90
16417;DHT22;8317;52.186;5.688;2022-11-18T10:18:37;11.90;99.90
16417;DHT22;8317;52.186;5.688;2022-11-18T10:21:15;12.70;99.90
16417;DHT22;8317;52.186;5.688;2022-11-18T10:23:50;12.70;99.90
16417;DHT22;8317;52.186;5.688;2022-11-18T10:26:31;12.50;99.90
16417;DHT22;8317;52.186;5.688;2022-11-18T10:29:00;12.80;99.90
16417;DHT22;8317;52.186;5.688;2022-11-18T10:31:27;13.30;99.90
16417;DHT22;8317;52.186;5.688;2022-11-18T10:33:58;13.30;99.90
16417;DHT22;8317;52.186;5.688;2022-11-18T10:36:26;12.60;99.90
16417;DHT22;8317;52.186;5.688;2022-11-18T10:39:11;12.40;99.90
16417;DHT22;8317;52.186;5.688;2022-11-18T10:41:42;12.80;99.90
16417;DHT22;8317;52.186;5.688;2022-11-18T10:44:35;13.20;99.90
16417;DHT22;8317;52.186;5.688;2022-11-18T10:47:23;13.90;99.90
16417;DHT22;8317;52.186;5.688;2022-11-18T10:49:50;13.50;99.90
16417;DHT22;8317;52.186;5.688;2022-11-18T10:52:18;12.90;99.90
16417;DHT22;8317;52.186;5.688;2022-11-18T10:54:45;12.80;99.90
16417;DHT22;8317;52.186;5.688;2022-11-18T10:57:34;13.60;99.90
16417;DHT22;8317;52.186;5.688;2022-11-18T11:00:30;14.00;99.90
16417;DHT22;8317;52.186;5.688;2022-11-18T11:02:57;13.50;99.90
16417;DHT22;8317;52.186;5.688;2022-11-18T11:05:24;13.50;99.90
16417;DHT22;8317;52.186;5.688;2022-11-18T11:08:00;13.60;99.90
16417;DHT22;8317;52.186;5.688;2022-11-18T11:10:28;14.00;99.90
16417;DHT22;8317;52.186;5.688;2022-11-18T11:12:58;13.70;99.90
16417;DHT22;8317;52.186;5.688;2022-11-18T11:15:35;13.50;99.90
16417;DHT22;8317;52.186;5.688;2022-11-18T11:18:05;13.90;99.90
16417;DHT22;8317;52.186;5.688;2022-11-18T11:21:10;13.40;99.90
16417;DHT22;8317;52.186;5.688;2022-11-18T11:23:37;14.10;99.90
16417;DHT22;8317;52.186;5.688;2022-11-18T11:26:08;13.90;99.90
16417;DHT22;8317;52.186;5.688;2022-11-18T11:28:42;14.20;99.90
16417;DHT22;8317;52.186;5.688;2022-11-18T11:31:17;13.70;99.90
16417;DHT22;8317;52.186;5.688;2022-11-18T11:33:51;13.60;99.90
16417;DHT22;8317;52.186;5.688;2022-11-18T11:36:36;14.10;99.90
16417;DHT22;8317;52.186;5.688;2022-11-18T11:39:32;14.80;99.90
16417;DHT22;8317;52.186;5.688;2022-11-18T11:42:05;14.50;99.90
16417;DHT22;8317;52.186;5.688;2022-11-18T11:44:48;13.60;99.90
16417;DHT22;8317;52.186;5.688;2022-11-18T11:47:27;12.90;99.90
16417;DHT22;8317;52.186;5.688;2022-11-18T11:50:21;12.80;99.90
16417;DHT22;8317;52.186;5.688;2022-11-18T11:53:00;12.20;99.90
16417;DHT22;8317;52.186;5.688;2022-11-18T11:55:48;11.90;99.90
16417;DHT22;8317;52.186;5.688;2022-11-18T11:58:30;11.90;99.90
16417;DHT22;8317;52.186;5.688;2022-11-18T12:01:07;11.80;99.90
16417;DHT22;8317;52.186;5.688;2022-11-18T12:03:43;11.90;99.90
16417;DHT22;8317;52.186;5.688;2022-11-18T12:06:11;12.00;99.90
16417;DHT22;8317;52.186;5.688;2022-11-18T12:08:46;11.70;99.90
16417;DHT22;8317;52.186;5.688;2022-11-18T12:11:18;11.50;99.90
16417;DHT22;8317;52.186;5.688;2022-11-18T12:13:49;11.40;99.90
16417;DHT22;8317;52.186;5.688;2022-11-18T12:16:24;11.40;99.90
16417;DHT22;8317;52.186;5.688;2022-11-18T12:18:58;11.40;99.90
16417;DHT22;8317;52.186;5.688;2022-11-18T12:21:56;11.40;99.90
16417;DHT22;8317;52.186;5.688;2022-11-18T12:24:35;11.30;99.90
16417;DHT22;8317;52.186;5.688;2022-11-18T12:27:09;11.20;99.90
16417;DHT22;8317;52.186;5.688;2022-11-18T12:29:41;11.20;99.90
16417;DHT22;8317;52.186;5.688;2022-11-18T12:32:26;11.30;99.90
16417;DHT22;8317;52.186;5.688;2022-11-18T12:34:58;11.30;99.90
16417;DHT22;8317;52.186;5.688;2022-11-18T12:37:56;11.20;99.90
16417;DHT22;8317;52.186;5.688;2022-11-18T12:40:40;11.10;99.90
16417;DHT22;8317;52.186;5.688;2022-11-18T12:46:52;11.00;99.90
16417;DHT22;8317;52.186;5.688;2022-11-18T12:52:49;11.20;99.90
16417;DHT22;8317;52.186;5.688;2022-11-18T12:55:23;11.30;99.90
16417;DHT22;8317;52.186;5.688;2022-11-18T12:57:50;11.30;99.90
16417;DHT22;8317;52.186;5.688;2022-11-18T13:00:29;11.30;99.90
16417;DHT22;8317;52.186;5.688;2022-11-18T13:02:58;11.30;99.90
16417;DHT22;8317;52.186;5.688;2022-11-18T13:05:27;11.40;99.90
16417;DHT22;8317;52.186;5.688;2022-11-18T13:07:59;11.50;99.90
16417;DHT22;8317;52.186;5.688;2022-11-18T13:10:45;11.30;99.90
16417;DHT22;8317;52.186;5.688;2022-11-18T13:13:21;11.30;99.90
16417;DHT22;8317;52.186;5.688;2022-11-18T13:15:49;11.20;99.90
16417;DHT22;8317;52.186;5.688;2022-11-18T13:18:33;11.30;99.90
16417;DHT22;8317;52.186;5.688;2022-11-18T13:21:20;11.40;99.90
16417;DHT22;8317;52.186;5.688;2022-11-18T13:24:06;11.70;99.90
16417;DHT22;8317;52.186;5.688;2022-11-18T13:26:39;12.10;99.90
16417;DHT22;8317;52.186;5.688;2022-11-18T13:29:22;12.30;99.90
16417;DHT22;8317;52.186;5.688;2022-11-18T13:32:00;12.20;99.90
16417;DHT22;8317;52.186;5.688;2022-11-18T13:34:30;12.40;99.90
16417;DHT22;8317;52.186;5.688;2022-11-18T13:36:58;12.30;99.90
16417;DHT22;8317;52.186;5.688;2022-11-18T13:39:28;12.00;99.90
16417;DHT22;8317;52.186;5.688;2022-11-18T13:42:00;11.90;99.90
16417;DHT22;8317;52.186;5.688;2022-11-18T13:44:29;11.80;99.90
16417;DHT22;8317;52.186;5.688;2022-11-18T13:47:02;11.60;99.90
16417;DHT22;8317;52.186;5.688;2022-11-18T13:49:45;11.60;99.90
16417;DHT22;8317;52.186;5.688;2022-11-18T13:52:14;11.50;99.90
16417;DHT22;8317;52.186;5.688;2022-11-18T13:54:44;11.60;99.90
16417;DHT22;8317;52.186;5.688;2022-11-18T13:57:16;11.50;99.90
16417;DHT22;8317;52.186;5.688;2022-11-18T13:59:45;11.50;99.90
16417;DHT22;8317;52.186;5.688;2022-11-18T14:02:13;11.90;99.90
16417;DHT22;8317;52.186;5.688;2022-11-18T14:04:48;12.00;99.90
16417;DHT22;8317;52.186;5.688;2022-11-18T14:07:24;12.00;99.90
16417;DHT22;8317;52.186;5.688;2022-11-18T14:09:54;12.30;99.90
16417;DHT22;8317;52.186;5.688;2022-11-18T14:12:23;12.30;99.90
16417;DHT22;8317;52.186;5.688;2022-11-18T14:15:10;12.00;99.90
16417;DHT22;8317;52.186;5.688;2022-11-18T14:17:37;11.80;99.90
16417;DHT22;8317;52.186;5.688;2022-11-18T14:20:11;11.80;99.90
16417;DHT22;8317;52.186;5.688;2022-11-18T14:22:41;11.70;99.90
16417;DHT22;8317;52.186;5.688;2022-11-18T14:25:17;11.70;99.90
16417;DHT22;8317;52.186;5.688;2022-11-18T14:27:46;11.70;99.90
16417;DHT22;8317;52.186;5.688;2022-11-18T14:30:32;11.70;99.90
16417;DHT22;8317;52.186;5.688;2022-11-18T14:33:18;12.10;99.90
16417;DHT22;8317;52.186;5.688;2022-11-18T14:35:51;11.70;99.90
16417;DHT22;8317;52.186;5.688;2022-11-18T14:38:21;11.70;99.90
16417;DHT22;8317;52.186;5.688;2022-11-18T14:40:55;11.70;99.90
16417;DHT22;8317;52.186;5.688;2022-11-18T14:43:23;11.90;99.90
16417;DHT22;8317;52.186;5.688;2022-11-18T14:45:52;11.90;99.90
16417;DHT22;8317;52.186;5.688;2022-11-18T14:48:21;11.90;99.90
16417;DHT22;8317;52.186;5.688;2022-11-18T14:50:48;11.90;99.90
16417;DHT22;8317;52.186;5.688;2022-11-18T14:53:17;11.60;99.90
16417;DHT22;8317;52.186;5.688;2022-11-18T14:55:46;11.60;99.90
16417;DHT22;8317;52.186;5.688;2022-11-18T14:58:15;11.40;99.90
16417;DHT22;8317;52.186;5.688;2022-11-18T15:00:43;11.40;99.90
16417;DHT22;8317;52.186;5.688;2022-11-18T15:03:11;11.30;99.90
16417;DHT22;8317;52.186;5.688;2022-11-18T15:05:38;11.20;99.90
16417;DHT22;8317;52.186;5.688;2022-11-18T15:08:05;11.20;99.90
16417;DHT22;8317;52.186;5.688;2022-11-18T15:10:32;11.10;99.90
16417;DHT22;8317;52.186;5.688;2022-11-18T15:12:59;11.10;99.90
16417;DHT22;8317;52.186;5.688;2022-11-18T15:15:28;10.90;99.90
16417;DHT22;8317;52.186;5.688;2022-11-18T15:17:56;10.70;99.90
16417;DHT22;8317;52.186;5.688;2022-11-18T15:20:23;10.70;99.90
16417;DHT22;8317;52.186;5.688;2022-11-18T15:22:49;10.70;99.90
16417;DHT22;8317;52.186;5.688;2022-11-18T15:25:16;10.60;99.90
16417;DHT22;8317;52.186;5.688;2022-11-18T15:27:43;10.50;99.90
16417;DHT22;8317;52.186;5.688;2022-11-18T15:30:12;10.50;99.90
16417;DHT22;8317;52.186;5.688;2022-11-18T15:32:41;10.50;99.90
16417;DHT22;8317;52.186;5.688;2022-11-18T15:35:10;10.40;99.90
16417;DHT22;8317;52.186;5.688;2022-11-18T15:37:37;10.50;99.90
16417;DHT22;8317;52.186;5.688;2022-11-18T15:40:05;10.50;99.90
16417;DHT22;8317;52.186;5.688;2022-11-18T15:42:32;10.50;99.90
16417;DHT22;8317;52.186;5.688;2022-11-18T15:44:58;10.50;99.90
16417;DHT22;8317;52.186;5.688;2022-11-18T15:47:25;10.50;99.90
16417;DHT22;8317;52.186;5.688;2022-11-18T15:49:54;10.40;99.90
16417;DHT22;8317;52.186;5.688;2022-11-18T15:52:21;10.40;99.90
16417;DHT22;8317;52.186;5.688;2022-11-18T15:54:48;10.30;99.90
16417;DHT22;8317;52.186;5.688;2022-11-18T15:57:15;10.30;99.90
16417;DHT22;8317;52.186;5.688;2022-11-18T15:59:41;10.20;99.90
16417;DHT22;8317;52.186;5.688;2022-11-18T16:02:09;10.20;99.90
16417;DHT22;8317;52.186;5.688;2022-11-18T16:04:36;10.10;99.90
16417;DHT22;8317;52.186;5.688;2022-11-18T16:07:04;10.00;99.90
16417;DHT22;8317;52.186;5.688;2022-11-18T16:09:31;9.90;99.90
16417;DHT22;8317;52.186;5.688;2022-11-18T16:12:16;9.80;99.90
16417;DHT22;8317;52.186;5.688;2022-11-18T16:15:00;9.70;99.90
16417;DHT22;8317;52.186;5.688;2022-11-18T16:17:41;9.60;99.90
16417;DHT22;8317;52.186;5.688;2022-11-18T16:20:09;9.60;99.90
16417;DHT22;8317;52.186;5.688;2022-11-18T16:22:37;9.70;99.90
16417;DHT22;8317;52.186;5.688;2022-11-18T16:25:05;9.60;99.90
16417;DHT22;8317;52.186;5.688;2022-11-18T16:27:33;9.50;99.90